Time;durP1;ratioP1;P1;durP2;ratioP2;P2;SDS_P1;SDS_P2;PMS_P1;PMS_P2;Temp;Humidity;BMP_temperature;BMP_pressure;BME280_temperature;BME280_humidity;BME280_pressure;Samples;Min_cycle;Max_cycle;Signal;HPM_P1;HPM_P2
2022/08/30 00:03:26;;;;;;;1.43;0.90;;;20.00;83.70;;;;;;6077674;23;20828;-77
2022/08/30 00:05:54;;;;;;;1.47;0.90;;;20.00;83.10;;;;;;6080108;23;20427;-77
2022/08/30 00:08:20;;;;;;;1.40;0.90;;;20.00;83.60;;;;;;6084893;23;20769;-77
2022/08/30 00:10:49;;;;;;;1.43;0.90;;;20.00;84.00;;;;;;6054592;23;20451;-76
2022/08/30 00:13:18;;;;;;;1.50;0.90;;;20.00;83.20;;;;;;6086057;23;20431;-75
2022/08/30 00:15:47;;;;;;;1.43;0.90;;;20.00;84.00;;;;;;6064902;23;20423;-76
2022/08/30 00:18:16;;;;;;;1.43;0.90;;;19.90;83.60;;;;;;6048564;23;20436;-76
2022/08/30 00:20:45;;;;;;;1.43;0.90;;;19.90;84.30;;;;;;6074019;23;20420;-77
2022/08/30 00:23:12;;;;;;;1.43;0.90;;;19.90;84.80;;;;;;6047540;23;20524;-77
2022/08/30 00:25:40;;;;;;;1.50;1.00;;;19.80;84.50;;;;;;6063887;23;20423;-76
2022/08/30 00:28:08;;;;;;;1.47;0.90;;;19.80;84.90;;;;;;6072188;23;20452;-76
2022/08/30 00:30:35;;;;;;;1.40;0.90;;;19.80;84.70;;;;;;6064562;23;20447;-76
2022/08/30 00:33:04;;;;;;;1.47;0.90;;;19.80;84.70;;;;;;6070385;23;20450;-76
2022/08/30 00:35:31;;;;;;;1.47;0.90;;;19.80;85.20;;;;;;6064272;23;20428;-77
2022/08/30 00:37:58;;;;;;;1.47;0.90;;;19.80;84.90;;;;;;6072456;23;20455;-76
2022/08/30 00:40:29;;;;;;;1.43;0.90;;;19.80;85.20;;;;;;6064741;23;20415;-77
2022/08/30 00:42:59;;;;;;;1.47;0.90;;;19.80;85.10;;;;;;6071680;23;20514;-76
2022/08/30 00:45:29;;;;;;;1.43;0.90;;;19.80;84.80;;;;;;6063700;23;20456;-76
2022/08/30 00:47:56;;;;;;;1.40;0.90;;;19.80;86.00;;;;;;6072990;23;20461;-77
2022/08/30 00:50:29;;;;;;;1.40;0.90;;;19.80;85.00;;;;;;6063234;23;20430;-77
2022/08/30 00:52:59;;;;;;;1.47;0.90;;;19.70;85.10;;;;;;6070249;23;20450;-77
2022/08/30 00:55:29;;;;;;;1.43;0.90;;;19.70;85.40;;;;;;6064013;23;20426;-76
2022/08/30 00:58:00;;;;;;;1.47;0.90;;;19.60;85.40;;;;;;6074372;23;20478;-76
2022/08/30 01:00:27;;;;;;;1.43;0.90;;;19.60;86.20;;;;;;6064967;23;20408;-76
2022/08/30 01:02:54;;;;;;;1.47;0.90;;;19.50;86.10;;;;;;6070585;23;20457;-75
2022/08/30 01:05:22;;;;;;;1.43;0.90;;;19.50;86.00;;;;;;6064687;23;20424;-77
2022/08/30 01:07:51;;;;;;;1.43;1.00;;;19.40;86.20;;;;;;6072056;23;20478;-76
2022/08/30 01:10:18;;;;;;;1.40;0.90;;;19.40;86.40;;;;;;6064207;23;20478;-76
2022/08/30 01:12:47;;;;;;;1.50;0.90;;;19.30;87.00;;;;;;6073081;23;20541;-75
2022/08/30 01:15:15;;;;;;;1.50;0.90;;;19.30;86.60;;;;;;6063806;23;20434;-78
2022/08/30 01:17:45;;;;;;;1.43;0.90;;;19.30;87.80;;;;;;6071782;23;20538;-77
2022/08/30 01:20:14;;;;;;;1.47;1.00;;;19.20;87.20;;;;;;6063288;23;20424;-77
2022/08/30 01:22:47;;;;;;;1.40;0.90;;;19.20;87.60;;;;;;6071651;23;20855;-76
2022/08/30 01:25:18;;;;;;;1.47;0.90;;;19.20;87.30;;;;;;6062224;23;20435;-77
2022/08/30 01:27:50;;;;;;;1.43;0.90;;;19.20;87.90;;;;;;6070098;23;20461;-76
2022/08/30 01:30:18;;;;;;;1.47;0.90;;;19.20;87.50;;;;;;6062859;23;20435;-76
2022/08/30 01:32:48;;;;;;;1.40;0.90;;;19.10;87.80;;;;;;6070149;23;20968;-77
2022/08/30 01:35:17;;;;;;;1.43;0.90;;;19.10;88.20;;;;;;6051844;23;20943;-76
2022/08/30 01:37:46;;;;;;;1.47;0.90;;;19.10;88.40;;;;;;6068472;23;20957;-77
2022/08/30 01:40:15;;;;;;;1.50;0.90;;;19.10;87.80;;;;;;6074483;23;20427;-77
2022/08/30 01:42:42;;;;;;;1.47;0.90;;;19.10;87.90;;;;;;6070483;23;20454;-76
2022/08/30 01:45:10;;;;;;;1.47;0.90;;;19.10;88.00;;;;;;6064959;23;20420;-76
2022/08/30 01:47:39;;;;;;;1.50;0.90;;;19.00;88.00;;;;;;6069474;23;20457;-78
2022/08/30 01:50:07;;;;;;;1.50;0.90;;;19.00;88.30;;;;;;6066169;23;20502;-77
2022/08/30 01:52:34;;;;;;;1.50;0.90;;;19.00;88.60;;;;;;6069708;23;20461;-77
2022/08/30 01:55:02;;;;;;;1.43;0.90;;;19.00;89.10;;;;;;6066576;23;20450;-76
2022/08/30 01:57:30;;;;;;;1.50;1.00;;;19.00;89.30;;;;;;6069200;23;20454;-77
2022/08/30 01:59:57;;;;;;;1.47;0.90;;;19.00;88.70;;;;;;6076704;23;20416;-77
2022/08/30 02:02:28;;;;;;;1.40;0.90;;;19.00;88.60;;;;;;6070833;23;20474;-77
2022/08/30 02:04:56;;;;;;;1.47;0.90;;;19.00;89.20;;;;;;6067552;23;20411;-77
2022/08/30 02:07:25;;;;;;;1.47;0.90;;;19.00;88.60;;;;;;6070162;23;21079;-76
2022/08/30 02:09:52;;;;;;;1.43;0.90;;;19.00;89.40;;;;;;6070343;23;20427;-77
2022/08/30 02:12:20;;;;;;;1.43;0.90;;;19.00;89.30;;;;;;6067326;23;20456;-77
2022/08/30 02:14:49;;;;;;;1.47;0.90;;;19.00;89.70;;;;;;6079537;23;20434;-77
2022/08/30 02:17:18;;;;;;;1.43;0.90;;;19.00;89.90;;;;;;6068798;23;20521;-77
2022/08/30 02:19:45;;;;;;;1.50;1.00;;;19.10;90.00;;;;;;6073717;23;20435;-75
2022/08/30 02:22:12;;;;;;;1.50;0.90;;;19.10;90.10;;;;;;6069022;23;20489;-76
2022/08/30 02:24:40;;;;;;;1.40;0.90;;;19.10;90.40;;;;;;6071178;23;20428;-76
2022/08/30 02:27:07;;;;;;;1.47;0.90;;;19.10;90.70;;;;;;6069159;23;20465;-76
2022/08/30 02:29:34;;;;;;;1.40;0.90;;;19.10;90.90;;;;;;6071011;23;20423;-76
2022/08/30 02:32:03;;;;;;;1.47;1.00;;;19.10;90.90;;;;;;6063237;23;20450;-77
2022/08/30 02:34:31;;;;;;;1.40;0.90;;;19.10;91.10;;;;;;6070923;23;20498;-76
2022/08/30 02:36:58;;;;;;;1.47;0.90;;;19.10;90.90;;;;;;6065197;23;20850;-76
2022/08/30 02:39:25;;;;;;;1.40;0.90;;;19.10;91.40;;;;;;6072837;23;20483;-76
2022/08/30 02:41:53;;;;;;;1.47;0.90;;;19.10;91.20;;;;;;6067367;23;20843;-77
2022/08/30 02:44:20;;;;;;;1.40;0.97;;;19.10;91.20;;;;;;6074385;23;20431;-76
2022/08/30 02:46:47;;;;;;;1.50;1.00;;;19.10;91.00;;;;;;6061618;23;20458;-77
2022/08/30 02:49:15;;;;;;;1.40;0.90;;;19.10;91.50;;;;;;6077048;23;20427;-76
2022/08/30 02:51:42;;;;;;;1.47;1.00;;;19.10;91.60;;;;;;6067449;23;20466;-77
2022/08/30 02:54:14;;;;;;;1.40;0.90;;;19.10;92.00;;;;;;6074868;23;20424;-77
2022/08/30 02:56:42;;;;;;;1.40;0.90;;;19.10;91.80;;;;;;6059502;23;20455;-77
2022/08/30 02:59:09;;;;;;;1.43;0.90;;;19.10;91.70;;;;;;6076833;23;20439;-77
2022/08/30 03:01:37;;;;;;;1.43;0.97;;;19.10;92.20;;;;;;6059794;23;20625;-77
2022/08/30 03:04:05;;;;;;;1.47;0.90;;;19.10;91.70;;;;;;6089337;23;20421;-76
2022/08/30 03:06:33;;;;;;;1.47;1.00;;;19.10;92.00;;;;;;6064661;23;20954;-77
2022/08/30 03:09:01;;;;;;;1.43;0.90;;;19.10;92.30;;;;;;6081335;23;20428;-77
2022/08/30 03:11:28;;;;;;;1.43;0.90;;;19.10;92.30;;;;;;6057570;23;20446;-77
2022/08/30 03:13:55;;;;;;;1.43;0.90;;;19.10;92.70;;;;;;6079685;23;20483;-77
2022/08/30 03:16:22;;;;;;;1.40;0.90;;;19.10;93.00;;;;;;6055789;23;20491;-77
2022/08/30 03:18:49;;;;;;;1.43;0.90;;;19.10;92.40;;;;;;6079894;23;20511;-76
2022/08/30 03:21:17;;;;;;;1.43;0.90;;;19.10;92.80;;;;;;6061181;23;20972;-77
2022/08/30 03:23:46;;;;;;;1.50;1.00;;;19.10;92.10;;;;;;6081935;23;20438;-77
2022/08/30 03:26:14;;;;;;;1.43;0.90;;;19.10;92.60;;;;;;6054259;23;20446;-77
2022/08/30 03:28:42;;;;;;;1.40;0.90;;;19.10;93.10;;;;;;6091362;23;20423;-77
2022/08/30 03:31:09;;;;;;;1.47;0.90;;;19.10;93.00;;;;;;6062960;23;20450;-75
2022/08/30 03:33:38;;;;;;;1.50;0.90;;;19.10;92.80;;;;;;6081913;23;20431;-75
2022/08/30 03:36:06;;;;;;;1.50;0.90;;;19.10;92.70;;;;;;6060132;23;20580;-75
2022/08/30 03:38:33;;;;;;;1.50;0.90;;;19.20;92.40;;;;;;6080568;23;20424;-76
2022/08/30 03:41:03;;;;;;;1.43;0.90;;;19.20;92.00;;;;;;6051392;23;20428;-75
2022/08/30 03:43:32;;;;;;;1.40;0.90;;;19.30;92.10;;;;;;6091262;23;20950;-76
2022/08/30 03:45:59;;;;;;;1.47;0.90;;;19.30;92.80;;;;;;6059251;23;20458;-76
2022/08/30 03:48:26;;;;;;;1.43;0.90;;;19.30;92.50;;;;;;6093879;23;20439;-76
2022/08/30 03:50:54;;;;;;;1.43;0.90;;;19.20;92.10;;;;;;6059667;23;20470;-75
2022/08/30 03:53:21;;;;;;;1.47;0.90;;;19.20;92.30;;;;;;6092727;23;20448;-76
2022/08/30 03:55:48;;;;;;;1.47;0.90;;;19.20;92.60;;;;;;6058273;23;20455;-76
2022/08/30 03:58:17;;;;;;;1.43;0.90;;;19.20;92.00;;;;;;6084212;23;20620;-77
2022/08/30 04:00:44;;;;;;;1.43;0.90;;;19.10;92.20;;;;;;6063972;23;20923;-75
2022/08/30 04:03:17;;;;;;;1.43;0.90;;;19.10;92.20;;;;;;6071938;23;20424;-77
2022/08/30 04:05:45;;;;;;;1.47;0.90;;;19.10;92.60;;;;;;6062313;23;20519;-75
2022/08/30 04:08:12;;;;;;;1.40;0.90;;;19.00;92.50;;;;;;6047285;23;20435;-76
2022/08/30 04:10:39;;;;;;;1.47;0.90;;;18.90;92.70;;;;;;6072939;23;20411;-76
2022/08/30 04:13:06;;;;;;;1.40;0.90;;;18.90;92.90;;;;;;6070787;23;20447;-75
2022/08/30 04:15:35;;;;;;;1.50;0.90;;;18.90;93.50;;;;;;6063115;23;20423;-75
2022/08/30 04:18:02;;;;;;;1.47;0.90;;;18.80;93.60;;;;;;6072210;23;20454;-76
2022/08/30 04:20:29;;;;;;;1.43;0.90;;;18.80;93.70;;;;;;6064236;23;20844;-77
2022/08/30 04:22:57;;;;;;;1.50;1.00;;;18.70;93.50;;;;;;6072254;23;20604;-76
2022/08/30 04:25:24;;;;;;;1.43;0.90;;;18.70;93.40;;;;;;6075235;23;20439;-76
2022/08/30 04:27:51;;;;;;;1.40;0.90;;;18.70;93.90;;;;;;6072195;23;20985;-76
2022/08/30 04:30:19;;;;;;;1.40;0.90;;;18.60;94.40;;;;;;6066389;23;20432;-76
2022/08/30 04:32:48;;;;;;;1.43;0.90;;;18.60;94.60;;;;;;6073891;23;20571;-76
2022/08/30 04:35:15;;;;;;;1.40;0.90;;;18.60;94.60;;;;;;6074305;23;20427;-76
2022/08/30 04:37:45;;;;;;;1.43;0.90;;;18.60;95.00;;;;;;6074654;23;20478;-76
2022/08/30 04:40:14;;;;;;;1.47;0.90;;;18.50;95.30;;;;;;6068238;23;20431;-77
2022/08/30 04:42:43;;;;;;;1.40;0.90;;;18.60;94.60;;;;;;6072237;23;20469;-76
2022/08/30 04:45:14;;;;;;;1.50;0.90;;;18.60;94.70;;;;;;6078204;23;20427;-76
2022/08/30 04:47:51;;;;;;;1.50;1.00;;;18.50;94.60;;;;;;6075443;23;20792;-77
2022/08/30 04:50:21;;;;;;;1.43;0.93;;;18.50;94.40;;;;;;6077325;23;20437;-77
2022/08/30 04:52:53;;;;;;;1.50;1.00;;;18.50;95.20;;;;;;6075061;23;20969;-76
2022/08/30 04:55:24;;;;;;;1.47;0.90;;;18.50;95.00;;;;;;6076205;23;20404;-76
2022/08/30 04:58:14;;;;;;;1.47;0.90;;;18.50;95.70;;;;;;6076078;23;20450;-77
2022/08/30 05:00:44;;;;;;;1.40;0.93;;;18.50;95.70;;;;;;6077182;23;20518;-77
2022/08/30 05:06:36;;;;;;;1.43;0.90;;;18.50;96.30;;;;;;6008482;23;20454;-76
2022/08/30 05:09:04;;;;;;;1.47;0.90;;;18.50;96.20;;;;;;6094752;23;20499;-77
2022/08/30 05:11:55;;;;;;;1.47;0.90;;;18.50;96.30;;;;;;6061586;23;20490;-77
2022/08/30 05:14:28;;;;;;;1.40;0.90;;;18.50;96.60;;;;;;6088240;23;20906;-76
2022/08/30 05:16:56;;;;;;;1.50;0.90;;;18.50;96.60;;;;;;6068807;23;20666;-77
2022/08/30 05:19:35;;;;;;;1.47;0.97;;;18.50;96.60;;;;;;6089255;23;20423;-76
2022/08/30 05:22:11;;;;;;;1.40;0.90;;;18.50;96.60;;;;;;6074511;23;20469;-75
2022/08/30 05:25:04;;;;;;;1.50;0.90;;;18.60;96.60;;;;;;6075082;23;21054;-76
2022/08/30 05:27:34;;;;;;;1.40;0.90;;;18.60;96.60;;;;;;6075457;23;20537;-76
2022/08/30 05:30:05;;;;;;;1.50;0.90;;;18.60;96.70;;;;;;6083606;23;20447;-76
2022/08/30 05:32:32;;;;;;;1.47;0.90;;;18.60;96.60;;;;;;6077871;23;20951;-76
2022/08/30 05:35:02;;;;;;;1.47;0.90;;;18.70;96.50;;;;;;6072943;23;20455;-76
2022/08/30 05:37:54;;;;;;;1.40;1.00;;;18.70;96.80;;;;;;6081740;23;20458;-80
2022/08/30 05:46:48;;;;;;;;;;;;;;;;;;;;;
2022/08/30 05:50:01;;;;;;;1.50;0.90;;;18.90;96.10;;;;;;6078980;23;20526;-75
2022/08/30 05:52:50;;;;;;;1.43;0.90;;;19.00;96.10;;;;;;6077067;23;20526;-76
2022/08/30 05:55:51;;;;;;;1.40;0.90;;;19.10;95.70;;;;;;6080670;23;20838;-77
2022/08/30 05:58:18;;;;;;;1.50;0.90;;;19.20;95.40;;;;;;6003226;23;20584;-76
2022/08/30 06:00:46;;;;;;;1.47;0.90;;;19.30;95.20;;;;;;6062819;23;20438;-77
2022/08/30 06:03:13;;;;;;;1.47;0.90;;;19.30;95.00;;;;;;6086320;23;20431;-75
2022/08/30 06:06:19;;;;;;;1.43;0.83;;;19.40;94.70;;;;;;6076848;23;20996;-76
2022/08/30 06:19:40;;;;;;;1.47;0.90;;;20.10;92.80;;;;;;5949331;23;2417061;-76
2022/08/30 06:22:07;;;;;;;1.43;0.90;;;20.30;92.20;;;;;;6029433;23;20204;-76
2022/08/30 06:24:36;;;;;;;1.47;0.90;;;20.60;91.30;;;;;;6037064;23;20420;-75
2022/08/30 06:27:03;;;;;;;1.47;0.90;;;20.70;90.50;;;;;;6034670;23;20496;-76
2022/08/30 06:29:31;;;;;;;1.50;0.90;;;20.80;89.80;;;;;;6042636;23;20429;-76
2022/08/30 06:31:59;;;;;;;1.50;0.90;;;20.80;90.00;;;;;;6036813;23;20534;-75
2022/08/30 06:34:27;;;;;;;1.47;0.90;;;20.80;90.00;;;;;;6049642;23;20478;-76
2022/08/30 06:36:54;;;;;;;1.47;0.90;;;20.80;89.50;;;;;;6030415;23;20514;-76
2022/08/30 06:39:21;;;;;;;1.47;0.90;;;20.80;89.60;;;;;;6042808;23;20916;-75
2022/08/30 06:41:50;;;;;;;1.43;0.90;;;20.90;90.10;;;;;;6032831;23;21025;-75
2022/08/30 06:44:19;;;;;;;1.47;0.90;;;21.10;89.80;;;;;;6045598;23;20535;-76
2022/08/30 06:46:46;;;;;;;1.47;0.90;;;21.20;89.10;;;;;;6038607;23;20455;-77
2022/08/30 06:49:14;;;;;;;1.50;1.00;;;21.20;89.20;;;;;;6053688;23;20455;-76
2022/08/30 06:51:41;;;;;;;1.50;0.90;;;21.20;88.40;;;;;;6035309;23;20459;-76
2022/08/30 06:54:10;;;;;;;1.50;1.00;;;21.40;88.30;;;;;;6045403;23;20868;-76
2022/08/30 06:56:37;;;;;;;1.47;0.90;;;21.50;88.00;;;;;;6035724;23;20463;-76
2022/08/30 06:59:06;;;;;;;1.47;0.90;;;21.70;87.70;;;;;;6048030;23;20784;-76
2022/08/30 07:01:33;;;;;;;1.50;0.90;;;21.90;87.40;;;;;;6027326;23;20534;-77
2022/08/30 07:04:01;;;;;;;1.47;0.90;;;21.90;87.10;;;;;;6046962;23;20424;-75
2022/08/30 07:06:30;;;;;;;1.50;0.90;;;22.10;86.60;;;;;;6028536;23;21040;-75
2022/08/30 07:08:58;;;;;;;1.50;0.90;;;22.30;86.70;;;;;;6049631;23;21049;-74
2022/08/30 07:11:28;;;;;;;1.43;0.90;;;22.50;85.30;;;;;;6028586;23;20893;-74
2022/08/30 07:13:55;;;;;;;1.50;1.00;;;22.60;84.60;;;;;;6048479;23;20448;-76
2022/08/30 07:16:24;;;;;;;1.70;1.50;;;22.60;83.90;;;;;;6031864;23;20451;-75
2022/08/30 07:18:50;;;;;;;1.50;0.90;;;22.60;84.40;;;;;;6059278;23;20429;-76
2022/08/30 07:21:21;;;;;;;1.47;0.90;;;22.60;85.10;;;;;;6037938;23;20889;-76
2022/08/30 07:23:49;;;;;;;1.47;0.83;;;22.70;84.40;;;;;;6060144;23;20431;-75
2022/08/30 07:26:23;;;;;;;1.40;0.90;;;22.80;84.10;;;;;;6027723;23;20475;-76
2022/08/30 07:28:55;;;;;;;1.47;0.90;;;23.10;83.80;;;;;;6051803;23;20405;-76
2022/08/30 07:31:27;;;;;;;1.50;0.90;;;23.20;82.70;;;;;;6028390;23;20858;-75
2022/08/30 07:33:55;;;;;;;1.47;0.90;;;23.40;82.50;;;;;;6059052;23;20452;-75
2022/08/30 07:36:23;;;;;;;1.47;0.90;;;23.50;81.70;;;;;;6027261;23;20447;-76
2022/08/30 07:38:51;;;;;;;1.47;0.80;;;23.50;81.70;;;;;;6051448;23;20443;-75
2022/08/30 07:41:22;;;;;;;1.47;0.90;;;23.70;81.40;;;;;;6030310;23;20451;-75
2022/08/30 07:43:50;;;;;;;1.50;0.90;;;24.00;81.40;;;;;;6052568;23;20920;-77
2022/08/30 07:46:18;;;;;;;1.50;0.90;;;24.20;79.90;;;;;;6026623;23;20530;-77
2022/08/30 07:48:56;;;;;;;1.43;0.90;;;24.30;78.10;;;;;;6061945;23;20416;-78
2022/08/30 07:51:26;;;;;;;1.50;0.90;;;24.30;79.30;;;;;;6036319;23;20830;-77
2022/08/30 07:53:54;;;;;;;1.47;0.90;;;24.50;79.70;;;;;;6049835;23;20531;-75
2022/08/30 07:56:23;;;;;;;1.50;0.90;;;24.70;79.90;;;;;;6028615;23;20507;-78
2022/08/30 07:58:50;;;;;;;2.10;1.40;;;24.80;78.80;;;;;;6058882;23;21098;-77
2022/08/30 08:01:19;;;;;;;1.50;0.87;;;25.00;77.40;;;;;;6026650;23;20452;-78
2022/08/30 08:03:46;;;;;;;1.43;0.90;;;25.20;77.80;;;;;;6051978;23;20435;-77
2022/08/30 08:06:17;;;;;;;1.43;0.90;;;25.30;76.80;;;;;;6026980;23;20453;-77
2022/08/30 08:08:46;;;;;;;1.40;0.87;;;25.30;76.30;;;;;;6054424;23;20425;-77
2022/08/30 08:11:16;;;;;;;1.47;0.90;;;25.40;75.40;;;;;;6028407;23;20451;-77
2022/08/30 08:13:45;;;;;;;1.47;0.90;;;25.40;76.70;;;;;;6061964;23;21002;-78
2022/08/30 08:16:12;;;;;;;1.47;0.80;;;25.50;76.90;;;;;;6033407;23;20447;-78
2022/08/30 08:18:39;;;;;;;1.43;0.90;;;25.50;76.20;;;;;;6052296;23;20535;-76
2022/08/30 08:21:06;;;;;;;1.47;0.90;;;25.70;75.30;;;;;;6025657;23;20448;-75
2022/08/30 08:23:36;;;;;;;1.50;0.90;;;25.80;76.50;;;;;;6066292;23;20417;-76
2022/08/30 08:26:04;;;;;;;1.90;1.67;;;26.00;74.60;;;;;;6032526;23;20432;-77
2022/08/30 08:28:31;;;;;;;1.47;0.80;;;26.10;74.50;;;;;;6064352;23;20440;-78
2022/08/30 08:30:59;;;;;;;1.47;0.80;;;26.20;76.10;;;;;;6032576;23;20420;-80
2022/08/30 08:33:26;;;;;;;1.50;1.00;;;26.40;72.30;;;;;;6064135;23;20523;-78
2022/08/30 08:35:54;;;;;;;1.50;0.90;;;26.30;71.90;;;;;;6019527;23;20432;-77
2022/08/30 08:38:21;;;;;;;1.43;0.80;;;26.40;71.70;;;;;;6057466;23;20547;-78
2022/08/30 08:41:03;;;;;;;1.50;0.80;;;26.50;68.70;;;;;;6025509;23;20455;-76
2022/08/30 08:43:36;;;;;;;1.47;0.80;;;26.30;69.00;;;;;;6055731;23;20500;-76
2022/08/30 08:46:10;;;;;;;1.50;0.90;;;26.20;69.60;;;;;;6027306;23;20863;-77
2022/08/30 08:48:45;;;;;;;1.47;0.80;;;26.10;70.30;;;;;;6062297;23;20542;-77
2022/08/30 08:54:03;;;;;;;1.50;0.80;;;26.10;71.00;;;;;;6049188;23;20496;-76
2022/08/30 08:56:33;;;;;;;1.50;0.80;;;26.40;70.50;;;;;;6029473;23;20459;-77
2022/08/30 08:59:00;;;;;;;1.50;0.90;;;26.60;68.60;;;;;;6059966;23;20512;-75
2022/08/30 09:01:30;;;;;;;1.50;0.80;;;26.80;68.20;;;;;;6035845;23;20455;-76
2022/08/30 09:03:59;;;;;;;1.50;0.80;;;27.00;69.00;;;;;;6049345;23;20424;-76
2022/08/30 09:06:48;;;;;;;1.47;0.87;;;27.20;67.20;;;;;;6028768;23;20485;-76
2022/08/30 09:09:18;;;;;;;1.50;0.90;;;27.30;68.30;;;;;;6050502;23;20431;-77
2022/08/30 09:11:47;;;;;;;1.50;0.80;;;27.30;67.10;;;;;;6038384;23;20487;-77
2022/08/30 09:14:19;;;;;;;1.47;0.80;;;27.10;68.10;;;;;;6048049;23;20479;-77
2022/08/30 09:16:50;;;;;;;1.43;0.80;;;27.10;68.10;;;;;;6035844;23;20470;-78
2022/08/30 09:19:36;;;;;;;1.47;0.87;;;27.00;67.60;;;;;;6048600;23;20425;-77
2022/08/30 09:22:11;;;;;;;1.50;0.80;;;26.80;67.60;;;;;;6036741;23;20457;-77
2022/08/30 09:24:42;;;;;;;1.43;0.80;;;26.70;68.20;;;;;;6042192;23;20412;-76
2022/08/30 09:27:21;;;;;;;1.40;0.80;;;26.70;68.10;;;;;;6035799;23;20455;-76
2022/08/30 09:29:58;;;;;;;1.50;0.80;;;26.60;68.20;;;;;;6039720;23;21064;-75
2022/08/30 09:32:28;;;;;;;1.50;1.00;;;26.70;69.10;;;;;;6040017;23;20462;-76
2022/08/30 09:34:56;;;;;;;1.47;0.80;;;26.80;68.30;;;;;;6037476;23;20482;-78
2022/08/30 09:37:31;;;;;;;1.40;0.80;;;27.00;67.80;;;;;;6038917;23;20455;-77
2022/08/30 09:39:59;;;;;;;1.40;0.80;;;27.00;66.10;;;;;;6037884;23;20473;-77
2022/08/30 09:42:30;;;;;;;1.40;0.80;;;27.00;67.60;;;;;;6037385;23;20451;-77
2022/08/30 09:45:10;;;;;;;1.43;0.80;;;27.20;67.90;;;;;;6036803;23;20426;-76
2022/08/30 09:47:40;;;;;;;1.47;0.90;;;27.40;67.60;;;;;;6042809;23;20537;-76
2022/08/30 09:50:10;;;;;;;1.43;0.80;;;27.60;66.50;;;;;;6034858;23;20416;-77
2022/08/30 09:52:57;;;;;;;1.70;1.10;;;27.80;66.60;;;;;;6040948;23;20477;-76
2022/08/30 09:55:36;;;;;;;1.47;0.80;;;28.10;66.00;;;;;;6034476;23;20429;-76
2022/08/30 09:58:13;;;;;;;1.43;0.80;;;28.40;66.20;;;;;;6044795;23;21004;-77
2022/08/30 10:00:49;;;;;;;1.50;0.90;;;28.50;65.30;;;;;;6047427;23;20543;-77
2022/08/30 10:03:28;;;;;;;1.43;0.80;;;28.60;65.10;;;;;;6051240;23;21223;-76
2022/08/30 10:06:03;;;;;;;1.50;0.90;;;28.60;65.90;;;;;;6061724;23;20521;-76
2022/08/30 10:08:45;;;;;;;1.43;0.90;;;28.30;66.10;;;;;;6095624;23;20781;-76
2022/08/30 10:11:27;;;;;;;1.40;0.80;;;28.20;66.80;;;;;;6065713;23;20473;-77
2022/08/30 10:14:07;;;;;;;1.40;0.80;;;28.00;67.40;;;;;;6091149;23;20448;-76
2022/08/30 10:16:43;;;;;;;1.43;0.80;;;27.90;66.90;;;;;;6063774;23;20453;-76
2022/08/30 10:19:24;;;;;;;1.40;0.80;;;27.80;68.00;;;;;;6077872;23;20431;-77
2022/08/30 10:21:58;;;;;;;1.43;0.90;;;27.70;68.30;;;;;;6064713;23;20456;-76
2022/08/30 10:24:31;;;;;;;1.43;0.80;;;27.70;67.90;;;;;;6074341;23;20466;-76
2022/08/30 10:27:06;;;;;;;1.43;0.80;;;27.70;68.70;;;;;;6070102;23;20529;-78
2022/08/30 10:29:41;;;;;;;1.40;0.80;;;27.70;67.40;;;;;;6074521;23;20429;-77
2022/08/30 10:32:17;;;;;;;1.40;0.80;;;27.50;67.10;;;;;;6071191;23;20453;-79
2022/08/30 10:34:50;;;;;;;1.40;0.80;;;27.50;69.10;;;;;;6079377;23;20478;-76
2022/08/30 10:37:22;;;;;;;1.50;1.00;;;27.40;68.50;;;;;;6073017;23;20536;-77
2022/08/30 10:39:52;;;;;;;1.47;0.90;;;27.40;68.40;;;;;;6080333;23;20423;-77
2022/08/30 10:42:24;;;;;;;1.43;0.80;;;27.40;68.80;;;;;;6068297;23;20968;-77
2022/08/30 10:44:58;;;;;;;1.40;0.80;;;27.40;68.80;;;;;;6067598;23;20942;-80
2022/08/30 10:47:35;;;;;;;1.50;0.90;;;27.40;68.40;;;;;;6069389;23;20461;-76
2022/08/30 10:50:10;;;;;;;1.40;0.80;;;27.60;68.10;;;;;;6059454;23;20549;-76
2022/08/30 10:52:44;;;;;;;1.43;0.80;;;27.80;67.70;;;;;;6071362;23;20449;-75
2022/08/30 10:55:18;;;;;;;1.47;0.80;;;27.80;68.10;;;;;;6064467;23;20436;-75
2022/08/30 10:57:46;;;;;;;1.40;0.80;;;27.90;67.70;;;;;;6073194;23;20519;-75
2022/08/30 11:00:26;;;;;;;1.43;0.80;;;28.00;68.40;;;;;;6062970;23;20427;-75
2022/08/30 11:03:39;;;;;;;1.40;0.90;;;28.10;68.60;;;;;;6070755;23;20450;-75
2022/08/30 11:06:14;;;;;;;1.43;0.80;;;28.40;68.30;;;;;;6035044;23;20435;-75
2022/08/30 11:09:16;;;;;;;1.47;0.80;;;28.60;67.60;;;;;;6079749;23;20439;-76
2022/08/30 11:12:00;;;;;;;1.40;0.80;;;28.70;68.30;;;;;;6064522;23;20538;-76
2022/08/30 11:14:28;;;;;;;1.40;0.80;;;28.90;67.30;;;;;;6075172;23;20514;-76
2022/08/30 11:17:00;;;;;;;1.43;0.80;;;29.00;66.80;;;;;;6060194;23;20454;-76
2022/08/30 11:19:35;;;;;;;1.47;0.80;;;29.00;65.80;;;;;;6073410;23;20429;-77
2022/08/30 11:22:30;;;;;;;1.43;0.80;;;29.00;66.60;;;;;;6065467;23;21000;-78
2022/08/30 11:25:10;;;;;;;1.40;0.80;;;28.90;66.10;;;;;;6069246;23;20732;-77
2022/08/30 11:27:42;;;;;;;1.43;0.80;;;28.70;66.40;;;;;;6080481;23;20541;-77
2022/08/30 11:30:46;;;;;;;1.47;0.80;;;28.70;66.50;;;;;;6064937;23;20482;-77
2022/08/30 11:33:44;;;;;;;1.43;0.80;;;28.60;66.50;;;;;;6046185;23;20430;-76
2022/08/30 11:36:12;;;;;;;1.50;1.00;;;28.90;67.10;;;;;;6053621;23;20445;-76
2022/08/30 11:39:02;;;;;;;1.50;0.80;;;29.30;66.10;;;;;;6082060;23;20540;-77
2022/08/30 11:41:37;;;;;;;1.47;0.80;;;29.40;65.50;;;;;;6057531;23;20460;-77
2022/08/30 11:44:32;;;;;;;1.47;0.80;;;29.30;65.70;;;;;;6077154;23;20422;-77
2022/08/30 11:47:00;;;;;;;1.43;0.80;;;29.00;66.30;;;;;;6015898;23;20450;-76
2022/08/30 11:49:47;;;;;;;1.43;0.80;;;28.90;67.30;;;;;;6070709;23;20498;-76
2022/08/30 11:52:49;;;;;;;1.60;1.30;;;28.80;67.40;;;;;;6068511;23;20596;-76
2022/08/30 11:55:47;;;;;;;1.43;0.90;;;28.70;67.80;;;;;;6055525;23;20457;-76
2022/08/30 11:58:32;;;;;;;1.43;0.80;;;28.60;67.00;;;;;;6039628;23;20470;-75
2022/08/30 12:01:32;;;;;;;1.40;0.90;;;28.60;66.80;;;;;;6058491;23;20954;-76
2022/08/30 12:04:04;;;;;;;1.43;0.80;;;28.70;66.70;;;;;;6075064;23;20411;-76
2022/08/30 12:06:55;;;;;;;1.40;0.80;;;28.80;66.90;;;;;;6063716;23;20537;-76
2022/08/30 12:10:03;;;;;;;1.47;0.90;;;28.90;67.20;;;;;;6068460;23;20965;-77
2022/08/30 12:12:52;;;;;;;1.47;0.80;;;29.00;67.20;;;;;;6066238;23;20505;-77
2022/08/30 12:15:55;;;;;;;1.43;0.80;;;29.30;67.20;;;;;;6062671;23;20782;-76
2022/08/30 12:18:42;;;;;;;1.47;0.90;;;29.70;66.10;;;;;;6047060;23;20450;-77
2022/08/30 12:21:23;;;;;;;1.43;0.80;;;29.80;63.80;;;;;;6052423;23;20953;-77
2022/08/30 12:23:56;;;;;;;1.43;0.80;;;29.80;64.80;;;;;;6079461;23;20407;-77
2022/08/30 12:26:33;;;;;;;1.70;0.90;;;29.80;64.20;;;;;;6061158;23;21060;-76
2022/08/30 12:29:17;;;;;;;1.50;1.03;;;29.90;65.00;;;;;;6086725;23;20411;-77
2022/08/30 12:31:48;;;;;;;1.47;0.80;;;29.90;65.10;;;;;;6064657;23;20540;-78
2022/08/30 12:34:24;;;;;;;1.43;0.80;;;29.80;64.70;;;;;;6084437;23;20547;-76
2022/08/30 12:36:57;;;;;;;1.40;0.80;;;29.70;65.30;;;;;;6058902;23;20543;-77
2022/08/30 12:39:29;;;;;;;1.40;0.80;;;29.90;65.70;;;;;;6080649;23;20475;-77
2022/08/30 12:42:10;;;;;;;1.43;0.80;;;30.10;65.10;;;;;;6062820;23;20473;-76
2022/08/30 12:44:38;;;;;;;1.47;0.80;;;30.40;63.80;;;;;;6070190;23;20442;-78
2022/08/30 12:47:07;;;;;;;1.47;0.80;;;30.40;63.80;;;;;;6068400;23;20458;-76
2022/08/30 12:49:37;;;;;;;1.50;0.90;;;30.30;64.50;;;;;;6071340;23;20522;-78
2022/08/30 12:52:20;;;;;;;1.50;1.00;;;30.40;64.80;;;;;;6064505;23;20515;-77
2022/08/30 12:54:50;;;;;;;1.40;0.80;;;30.50;63.90;;;;;;6077739;23;20457;-76
2022/08/30 12:57:37;;;;;;;1.50;1.00;;;30.40;63.00;;;;;;6069328;23;20545;-76
2022/08/30 13:00:07;;;;;;;1.47;0.80;;;30.50;63.30;;;;;;6075517;23;20811;-77
2022/08/30 13:02:46;;;;;;;1.43;0.80;;;30.60;63.60;;;;;;6067097;23;20450;-76
2022/08/30 13:05:51;;;;;;;1.43;0.80;;;30.70;61.90;;;;;;6071582;23;20902;-76
2022/08/30 13:08:24;;;;;;;1.43;0.80;;;30.80;63.00;;;;;;6046541;23;20439;-76
2022/08/30 13:11:02;;;;;;;1.50;0.80;;;31.00;62.80;;;;;;6059647;23;20594;-76
2022/08/30 13:13:37;;;;;;;1.47;0.80;;;31.20;62.30;;;;;;6092723;23;20410;-76
2022/08/30 13:16:20;;;;;;;1.47;0.80;;;31.10;61.80;;;;;;6063535;23;20462;-77
2022/08/30 13:18:50;;;;;;;1.50;1.00;;;31.20;62.40;;;;;;6090948;23;20895;-77
2022/08/30 13:21:28;;;;;;;1.43;0.80;;;31.10;61.60;;;;;;6061751;23;21059;-76
2022/08/30 13:23:58;;;;;;;1.40;0.80;;;31.00;62.40;;;;;;6080456;23;20407;-74
2022/08/30 13:26:27;;;;;;;1.40;0.80;;;30.80;61.20;;;;;;6057005;23;20449;-76
2022/08/30 13:28:57;;;;;;;1.50;1.00;;;30.80;62.60;;;;;;6076980;23;20418;-76
2022/08/30 13:31:25;;;;;;;1.43;0.80;;;31.20;61.50;;;;;;6057243;23;20466;-76
2022/08/30 13:33:53;;;;;;;1.43;0.80;;;31.30;61.60;;;;;;6089110;23;20426;-76
2022/08/30 13:36:24;;;;;;;1.43;0.80;;;31.40;61.70;;;;;;6064121;23;20698;-76
2022/08/30 13:39:04;;;;;;;1.40;0.80;;;31.40;61.40;;;;;;6081429;23;20411;-76
2022/08/30 13:41:34;;;;;;;1.47;0.80;;;31.30;61.20;;;;;;6067734;23;20816;-77